sensor_id;sensor_type;location;lat;lon;timestamp;pressure;altitude;pressure_sealevel;temperature;humidity
30598;BME280;17365;48.878;8.334;2023-08-08T00:01:06;100201.38;;;16.09;68.02
30598;BME280;17365;48.878;8.334;2023-08-08T00:03:31;100201.19;;;16.17;67.72
30598;BME280;17365;48.878;8.334;2023-08-08T00:05:56;100201.84;;;16.28;67.63
30598;BME280;17365;48.878;8.334;2023-08-08T00:08:21;100208.00;;;16.25;67.99
30598;BME280;17365;48.878;8.334;2023-08-08T00:10:47;100202.88;;;16.21;67.86
30598;BME280;17365;48.878;8.334;2023-08-08T00:13:12;100194.91;;;16.25;67.66
30598;BME280;17365;48.878;8.334;2023-08-08T00:15:37;100203.59;;;16.27;67.82
30598;BME280;17365;48.878;8.334;2023-08-08T00:18:02;100198.41;;;16.26;67.85
30598;BME280;17365;48.878;8.334;2023-08-08T00:20:28;100191.34;;;16.29;67.78
30598;BME280;17365;48.878;8.334;2023-08-08T00:22:53;100200.25;;;16.19;68.21
30598;BME280;17365;48.878;8.334;2023-08-08T00:25:18;100195.16;;;16.13;68.18
30598;BME280;17365;48.878;8.334;2023-08-08T00:27:43;100193.38;;;16.15;68.49
30598;BME280;17365;48.878;8.334;2023-08-08T00:30:09;100190.75;;;16.15;68.31
30598;BME280;17365;48.878;8.334;2023-08-08T00:32:35;100194.03;;;16.26;67.97
30598;BME280;17365;48.878;8.334;2023-08-08T00:35:00;100192.47;;;16.16;68.35
30598;BME280;17365;48.878;8.334;2023-08-08T00:37:25;100183.56;;;16.26;67.77
30598;BME280;17365;48.878;8.334;2023-08-08T00:39:50;100189.56;;;16.30;67.74
30598;BME280;17365;48.878;8.334;2023-08-08T00:42:15;100187.94;;;16.26;67.84
30598;BME280;17365;48.878;8.334;2023-08-08T00:44:41;100182.59;;;16.32;67.75
30598;BME280;17365;48.878;8.334;2023-08-08T00:47:07;100177.28;;;16.35;67.45
30598;BME280;17365;48.878;8.334;2023-08-08T00:49:33;100185.06;;;16.38;67.35
30598;BME280;17365;48.878;8.334;2023-08-08T00:51:58;100174.66;;;16.35;67.43
30598;BME280;17365;48.878;8.334;2023-08-08T00:54:23;100173.66;;;16.42;67.14
30598;BME280;17365;48.878;8.334;2023-08-08T00:56:49;100169.47;;;16.34;67.42
30598;BME280;17365;48.878;8.334;2023-08-08T00:59:14;100166.72;;;16.38;67.37
30598;BME280;17365;48.878;8.334;2023-08-08T01:01:40;100170.31;;;16.34;67.52
30598;BME280;17365;48.878;8.334;2023-08-08T01:04:06;100171.31;;;16.27;67.77
30598;BME280;17365;48.878;8.334;2023-08-08T01:06:42;100163.66;;;16.18;67.75
30598;BME280;17365;48.878;8.334;2023-08-08T01:09:20;100170.59;;;16.19;67.42
30598;BME280;17365;48.878;8.334;2023-08-08T01:11:46;100172.50;;;16.12;67.63
30598;BME280;17365;48.878;8.334;2023-08-08T01:14:14;100170.69;;;16.16;67.65
30598;BME280;17365;48.878;8.334;2023-08-08T01:16:40;100167.34;;;16.09;68.06
30598;BME280;17365;48.878;8.334;2023-08-08T01:19:07;100164.78;;;16.05;68.50
30598;BME280;17365;48.878;8.334;2023-08-08T01:21:34;100168.41;;;15.99;68.60
30598;BME280;17365;48.878;8.334;2023-08-08T01:24:12;100168.50;;;15.93;69.08
30598;BME280;17365;48.878;8.334;2023-08-08T01:26:38;100167.63;;;15.94;69.12
30598;BME280;17365;48.878;8.334;2023-08-08T01:29:03;100167.56;;;15.98;69.29
30598;BME280;17365;48.878;8.334;2023-08-08T01:31:28;100168.34;;;16.02;69.01
30598;BME280;17365;48.878;8.334;2023-08-08T01:33:53;100164.94;;;15.98;69.25
30598;BME280;17365;48.878;8.334;2023-08-08T01:36:28;100162.03;;;16.12;68.61
30598;BME280;17365;48.878;8.334;2023-08-08T01:38:55;100164.69;;;16.11;68.82
30598;BME280;17365;48.878;8.334;2023-08-08T01:41:21;100166.44;;;16.10;68.76
30598;BME280;17365;48.878;8.334;2023-08-08T01:43:48;100160.28;;;16.13;68.57
30598;BME280;17365;48.878;8.334;2023-08-08T01:46:14;100160.50;;;16.02;69.22
30598;BME280;17365;48.878;8.334;2023-08-08T01:48:39;100161.47;;;15.96;69.28
30598;BME280;17365;48.878;8.334;2023-08-08T01:51:05;100164.06;;;15.96;69.17
30598;BME280;17365;48.878;8.334;2023-08-08T01:53:30;100158.19;;;15.87;70.00
30598;BME280;17365;48.878;8.334;2023-08-08T01:55:55;100161.91;;;15.73;70.64
30598;BME280;17365;48.878;8.334;2023-08-08T01:58:20;100157.53;;;15.74;70.79
30598;BME280;17365;48.878;8.334;2023-08-08T02:00:45;100156.84;;;15.64;71.86
30598;BME280;17365;48.878;8.334;2023-08-08T02:03:11;100158.91;;;15.44;73.51
30598;BME280;17365;48.878;8.334;2023-08-08T02:05:37;100151.91;;;15.46;74.03
30598;BME280;17365;48.878;8.334;2023-08-08T02:08:02;100162.16;;;15.58;73.07
30598;BME280;17365;48.878;8.334;2023-08-08T02:10:27;100158.50;;;15.68;72.94
30598;BME280;17365;48.878;8.334;2023-08-08T02:12:52;100160.75;;;15.40;75.06
30598;BME280;17365;48.878;8.334;2023-08-08T02:15:19;100159.06;;;15.35;76.09
30598;BME280;17365;48.878;8.334;2023-08-08T02:17:45;100160.50;;;15.54;74.69
30598;BME280;17365;48.878;8.334;2023-08-08T02:20:10;100159.44;;;15.66;73.53
30598;BME280;17365;48.878;8.334;2023-08-08T02:22:37;100154.59;;;15.43;76.30
30598;BME280;17365;48.878;8.334;2023-08-08T02:25:02;100153.38;;;15.11;78.87
30598;BME280;17365;48.878;8.334;2023-08-08T02:27:28;100162.91;;;15.14;78.87
30598;BME280;17365;48.878;8.334;2023-08-08T02:29:53;100158.06;;;15.43;76.33
30598;BME280;17365;48.878;8.334;2023-08-08T02:32:18;100157.09;;;15.48;76.67
30598;BME280;17365;48.878;8.334;2023-08-08T02:34:43;100154.28;;;15.61;75.69
30598;BME280;17365;48.878;8.334;2023-08-08T02:37:09;100152.31;;;15.23;78.68
30598;BME280;17365;48.878;8.334;2023-08-08T02:39:34;100151.19;;;14.82;81.50
30598;BME280;17365;48.878;8.334;2023-08-08T02:41:59;100146.59;;;15.00;81.08
30598;BME280;17365;48.878;8.334;2023-08-08T02:44:24;100153.63;;;14.96;81.57
30598;BME280;17365;48.878;8.334;2023-08-08T02:46:50;100158.00;;;14.93;81.81
30598;BME280;17365;48.878;8.334;2023-08-08T02:49:15;100155.84;;;15.21;80.10
30598;BME280;17365;48.878;8.334;2023-08-08T02:51:40;100159.88;;;14.86;83.08
30598;BME280;17365;48.878;8.334;2023-08-08T02:54:05;100165.25;;;14.75;84.48
30598;BME280;17365;48.878;8.334;2023-08-08T02:56:30;100157.25;;;14.86;84.01
30598;BME280;17365;48.878;8.334;2023-08-08T02:58:56;100167.78;;;14.80;84.87
30598;BME280;17365;48.878;8.334;2023-08-08T03:01:21;100165.88;;;14.91;84.28
30598;BME280;17365;48.878;8.334;2023-08-08T03:03:46;100170.00;;;15.04;82.66
30598;BME280;17365;48.878;8.334;2023-08-08T03:06:12;100173.75;;;14.88;84.19
30598;BME280;17365;48.878;8.334;2023-08-08T03:08:37;100166.78;;;14.89;84.06
30598;BME280;17365;48.878;8.334;2023-08-08T03:11:02;100162.25;;;15.00;83.15
30598;BME280;17365;48.878;8.334;2023-08-08T03:13:27;100162.09;;;15.10;82.13
30598;BME280;17365;48.878;8.334;2023-08-08T03:15:52;100158.38;;;15.24;80.89
30598;BME280;17365;48.878;8.334;2023-08-08T03:18:17;100153.19;;;15.22;81.04
30598;BME280;17365;48.878;8.334;2023-08-08T03:20:42;100166.94;;;15.33;80.41
30598;BME280;17365;48.878;8.334;2023-08-08T03:23:08;100161.03;;;15.22;81.48
30598;BME280;17365;48.878;8.334;2023-08-08T03:25:33;100167.94;;;15.25;81.45
30598;BME280;17365;48.878;8.334;2023-08-08T03:27:58;100166.47;;;15.10;82.44
30598;BME280;17365;48.878;8.334;2023-08-08T03:30:23;100177.66;;;15.18;82.19
30598;BME280;17365;48.878;8.334;2023-08-08T03:32:49;100181.16;;;15.15;82.69
30598;BME280;17365;48.878;8.334;2023-08-08T03:35:14;100177.47;;;15.29;81.53
30598;BME280;17365;48.878;8.334;2023-08-08T03:37:40;100172.06;;;15.39;80.44
30598;BME280;17365;48.878;8.334;2023-08-08T03:40:05;100174.19;;;15.16;81.90
30598;BME280;17365;48.878;8.334;2023-08-08T03:42:32;100175.03;;;15.17;81.62
30598;BME280;17365;48.878;8.334;2023-08-08T03:44:57;100173.31;;;15.15;81.39
30598;BME280;17365;48.878;8.334;2023-08-08T03:47:23;100185.63;;;15.09;81.66
30598;BME280;17365;48.878;8.334;2023-08-08T03:49:48;100175.78;;;15.25;80.37
30598;BME280;17365;48.878;8.334;2023-08-08T03:52:13;100178.50;;;15.20;80.98
30598;BME280;17365;48.878;8.334;2023-08-08T03:54:38;100184.00;;;15.02;82.04
30598;BME280;17365;48.878;8.334;2023-08-08T03:57:03;100185.66;;;15.07;82.06
30598;BME280;17365;48.878;8.334;2023-08-08T03:59:29;100181.59;;;14.88;82.76
30598;BME280;17365;48.878;8.334;2023-08-08T04:01:54;100168.56;;;14.87;82.94
30598;BME280;17365;48.878;8.334;2023-08-08T04:04:19;100175.56;;;14.83;82.98
30598;BME280;17365;48.878;8.334;2023-08-08T04:06:44;100161.84;;;14.69;84.12
30598;BME280;17365;48.878;8.334;2023-08-08T04:09:09;100161.91;;;14.66;84.16
30598;BME280;17365;48.878;8.334;2023-08-08T04:11:34;100158.44;;;14.64;84.44
30598;BME280;17365;48.878;8.334;2023-08-08T04:14:01;100163.56;;;14.70;84.32
30598;BME280;17365;48.878;8.334;2023-08-08T04:16:26;100162.69;;;14.71;84.16
30598;BME280;17365;48.878;8.334;2023-08-08T04:18:51;100166.06;;;14.77;83.98
30598;BME280;17365;48.878;8.334;2023-08-08T04:21:16;100176.25;;;14.96;82.93
30598;BME280;17365;48.878;8.334;2023-08-08T04:23:41;100184.06;;;14.97;82.98
30598;BME280;17365;48.878;8.334;2023-08-08T04:26:06;100173.50;;;15.06;82.69
30598;BME280;17365;48.878;8.334;2023-08-08T04:28:32;100179.31;;;15.22;81.27
30598;BME280;17365;48.878;8.334;2023-08-08T04:30:57;100179.22;;;15.30;81.20
30598;BME280;17365;48.878;8.334;2023-08-08T04:33:22;100181.75;;;15.34;80.86
30598;BME280;17365;48.878;8.334;2023-08-08T04:35:47;100184.31;;;15.36;80.89
30598;BME280;17365;48.878;8.334;2023-08-08T04:38:13;100181.91;;;15.24;81.87
30598;BME280;17365;48.878;8.334;2023-08-08T04:40:38;100193.34;;;15.18;82.14
30598;BME280;17365;48.878;8.334;2023-08-08T04:43:04;100193.59;;;15.01;83.35
30598;BME280;17365;48.878;8.334;2023-08-08T04:45:29;100197.88;;;15.05;83.82
30598;BME280;17365;48.878;8.334;2023-08-08T04:47:54;100210.38;;;14.85;84.63
30598;BME280;17365;48.878;8.334;2023-08-08T04:50:20;100199.44;;;15.17;83.00
30598;BME280;17365;48.878;8.334;2023-08-08T04:52:45;100200.06;;;15.33;82.27
30598;BME280;17365;48.878;8.334;2023-08-08T04:55:10;100197.66;;;15.21;83.10
30598;BME280;17365;48.878;8.334;2023-08-08T04:57:35;100195.56;;;15.42;81.85
30598;BME280;17365;48.878;8.334;2023-08-08T05:00:00;100198.75;;;15.58;81.43
30598;BME280;17365;48.878;8.334;2023-08-08T05:02:30;100198.34;;;15.83;79.39
30598;BME280;17365;48.878;8.334;2023-08-08T05:04:55;100197.84;;;15.62;79.71
30598;BME280;17365;48.878;8.334;2023-08-08T05:07:20;100191.31;;;15.88;79.18
30598;BME280;17365;48.878;8.334;2023-08-08T05:09:45;100195.59;;;15.41;81.65
30598;BME280;17365;48.878;8.334;2023-08-08T05:12:10;100186.38;;;16.16;78.44
30598;BME280;17365;48.878;8.334;2023-08-08T05:14:36;100181.25;;;16.11;77.35
30598;BME280;17365;48.878;8.334;2023-08-08T05:17:01;100185.09;;;15.92;78.59
30598;BME280;17365;48.878;8.334;2023-08-08T05:19:27;100190.69;;;15.72;80.19
30598;BME280;17365;48.878;8.334;2023-08-08T05:21:52;100200.69;;;15.47;81.52
30598;BME280;17365;48.878;8.334;2023-08-08T05:24:18;100198.28;;;15.87;80.17
30598;BME280;17365;48.878;8.334;2023-08-08T05:26:43;100198.56;;;15.70;80.53
30598;BME280;17365;48.878;8.334;2023-08-08T05:29:08;100189.75;;;15.78;80.81
30598;BME280;17365;48.878;8.334;2023-08-08T05:31:33;100187.56;;;16.01;79.25
30598;BME280;17365;48.878;8.334;2023-08-08T05:33:58;100195.91;;;16.18;79.14
30598;BME280;17365;48.878;8.334;2023-08-08T05:36:23;100190.75;;;16.58;77.34
30598;BME280;17365;48.878;8.334;2023-08-08T05:38:49;100193.50;;;16.51;77.52
30598;BME280;17365;48.878;8.334;2023-08-08T05:41:14;100191.06;;;16.43;78.18
30598;BME280;17365;48.878;8.334;2023-08-08T05:43:39;100185.75;;;16.46;77.47
30598;BME280;17365;48.878;8.334;2023-08-08T05:46:04;100188.69;;;16.33;77.82
30598;BME280;17365;48.878;8.334;2023-08-08T05:48:29;100194.06;;;16.68;76.96
30598;BME280;17365;48.878;8.334;2023-08-08T05:50:54;100193.97;;;16.71;76.18
30598;BME280;17365;48.878;8.334;2023-08-08T05:53:23;100183.38;;;16.77;76.47
30598;BME280;17365;48.878;8.334;2023-08-08T05:55:48;100195.34;;;17.26;73.48
30598;BME280;17365;48.878;8.334;2023-08-08T05:58:13;100188.41;;;17.24;73.14
30598;BME280;17365;48.878;8.334;2023-08-08T06:00:40;100195.97;;;17.00;74.54
30598;BME280;17365;48.878;8.334;2023-08-08T06:03:05;100194.69;;;16.79;74.46
30598;BME280;17365;48.878;8.334;2023-08-08T06:05:30;100184.66;;;17.34;71.44
30598;BME280;17365;48.878;8.334;2023-08-08T06:07:55;100194.31;;;17.69;71.18
30598;BME280;17365;48.878;8.334;2023-08-08T06:10:21;100187.94;;;17.78;69.87
30598;BME280;17365;48.878;8.334;2023-08-08T06:12:46;100188.06;;;17.37;71.02
30598;BME280;17365;48.878;8.334;2023-08-08T06:15:12;100195.72;;;17.11;72.36
30598;BME280;17365;48.878;8.334;2023-08-08T06:17:37;100190.59;;;17.76;69.88
30598;BME280;17365;48.878;8.334;2023-08-08T06:20:03;100197.03;;;17.97;68.94
30598;BME280;17365;48.878;8.334;2023-08-08T06:22:28;100199.38;;;17.75;68.95
30598;BME280;17365;48.878;8.334;2023-08-08T06:24:53;100195.56;;;17.87;68.51
30598;BME280;17365;48.878;8.334;2023-08-08T06:27:18;100195.97;;;17.36;70.66
30598;BME280;17365;48.878;8.334;2023-08-08T06:29:44;100200.31;;;17.72;69.83
30598;BME280;17365;48.878;8.334;2023-08-08T06:32:09;100201.66;;;17.87;69.03
30598;BME280;17365;48.878;8.334;2023-08-08T06:34:34;100196.94;;;18.00;68.49
30598;BME280;17365;48.878;8.334;2023-08-08T06:36:59;100203.03;;;17.68;67.64
30598;BME280;17365;48.878;8.334;2023-08-08T06:39:24;100192.56;;;18.00;68.29
30598;BME280;17365;48.878;8.334;2023-08-08T06:41:50;100193.53;;;18.29;67.34
30598;BME280;17365;48.878;8.334;2023-08-08T06:44:15;100195.34;;;18.27;66.36
30598;BME280;17365;48.878;8.334;2023-08-08T06:46:40;100195.44;;;18.53;66.01
30598;BME280;17365;48.878;8.334;2023-08-08T06:49:06;100190.53;;;18.41;66.08
30598;BME280;17365;48.878;8.334;2023-08-08T06:51:32;100193.38;;;18.33;66.30
30598;BME280;17365;48.878;8.334;2023-08-08T06:53:57;100191.59;;;18.34;65.47
30598;BME280;17365;48.878;8.334;2023-08-08T06:56:22;100193.38;;;18.33;65.60
30598;BME280;17365;48.878;8.334;2023-08-08T06:58:47;100190.63;;;18.38;64.85
30598;BME280;17365;48.878;8.334;2023-08-08T07:01:13;100184.38;;;18.42;65.03
30598;BME280;17365;48.878;8.334;2023-08-08T07:03:38;100178.56;;;18.31;65.20
30598;BME280;17365;48.878;8.334;2023-08-08T07:06:04;100178.78;;;18.25;65.89
30598;BME280;17365;48.878;8.334;2023-08-08T07:08:29;100177.94;;;18.52;64.23
30598;BME280;17365;48.878;8.334;2023-08-08T07:10:54;100178.50;;;18.63;63.72
30598;BME280;17365;48.878;8.334;2023-08-08T07:13:19;100183.41;;;18.45;63.98
30598;BME280;17365;48.878;8.334;2023-08-08T07:15:44;100175.88;;;18.63;62.62
30598;BME280;17365;48.878;8.334;2023-08-08T07:18:10;100174.41;;;18.53;63.15
30598;BME280;17365;48.878;8.334;2023-08-08T07:20:35;100176.66;;;18.67;62.68
30598;BME280;17365;48.878;8.334;2023-08-08T07:23:00;100169.25;;;18.80;61.70
30598;BME280;17365;48.878;8.334;2023-08-08T07:25:26;100168.84;;;18.94;61.52
30598;BME280;17365;48.878;8.334;2023-08-08T07:27:51;100163.53;;;18.67;60.49
30598;BME280;17365;48.878;8.334;2023-08-08T07:30:16;100166.28;;;18.92;61.00
30598;BME280;17365;48.878;8.334;2023-08-08T07:32:42;100163.25;;;19.31;59.50
30598;BME280;17365;48.878;8.334;2023-08-08T07:35:07;100161.25;;;19.11;58.99
30598;BME280;17365;48.878;8.334;2023-08-08T07:37:33;100158.03;;;19.29;59.47
30598;BME280;17365;48.878;8.334;2023-08-08T07:39:58;100166.50;;;19.39;58.89
30598;BME280;17365;48.878;8.334;2023-08-08T07:42:24;100159.94;;;19.24;58.77
30598;BME280;17365;48.878;8.334;2023-08-08T07:44:49;100161.91;;;19.44;57.99
30598;BME280;17365;48.878;8.334;2023-08-08T07:47:14;100169.19;;;19.64;57.46
30598;BME280;17365;48.878;8.334;2023-08-08T07:49:39;100163.31;;;19.56;58.02
30598;BME280;17365;48.878;8.334;2023-08-08T07:52:05;100167.44;;;19.36;58.11
30598;BME280;17365;48.878;8.334;2023-08-08T07:54:30;100176.84;;;19.70;57.22
30598;BME280;17365;48.878;8.334;2023-08-08T07:56:55;100172.00;;;19.58;56.85
30598;BME280;17365;48.878;8.334;2023-08-08T07:59:21;100171.44;;;19.48;57.31
30598;BME280;17365;48.878;8.334;2023-08-08T08:01:46;100176.84;;;19.70;56.65
30598;BME280;17365;48.878;8.334;2023-08-08T08:04:11;100169.72;;;19.73;57.01
30598;BME280;17365;48.878;8.334;2023-08-08T08:06:37;100171.06;;;19.85;56.77
30598;BME280;17365;48.878;8.334;2023-08-08T08:09:02;100161.63;;;19.27;57.38
30598;BME280;17365;48.878;8.334;2023-08-08T08:11:28;100166.50;;;19.65;56.35
30598;BME280;17365;48.878;8.334;2023-08-08T08:13:53;100165.63;;;19.90;54.81
30598;BME280;17365;48.878;8.334;2023-08-08T08:16:18;100157.88;;;20.33;54.72
30598;BME280;17365;48.878;8.334;2023-08-08T08:18:44;100157.09;;;20.31;54.55
30598;BME280;17365;48.878;8.334;2023-08-08T08:21:09;100157.69;;;20.38;54.45
30598;BME280;17365;48.878;8.334;2023-08-08T08:23:34;100164.66;;;20.41;53.70
30598;BME280;17365;48.878;8.334;2023-08-08T08:25:59;100165.91;;;20.30;53.56
30598;BME280;17365;48.878;8.334;2023-08-08T08:28:25;100161.22;;;20.39;55.44
30598;BME280;17365;48.878;8.334;2023-08-08T08:30:50;100150.84;;;20.57;54.36
30598;BME280;17365;48.878;8.334;2023-08-08T08:33:15;100154.81;;;20.46;55.33
30598;BME280;17365;48.878;8.334;2023-08-08T08:35:41;100157.06;;;20.78;55.30
30598;BME280;17365;48.878;8.334;2023-08-08T08:38:06;100157.00;;;20.80;53.67
30598;BME280;17365;48.878;8.334;2023-08-08T08:40:36;100155.09;;;19.90;56.10
30598;BME280;17365;48.878;8.334;2023-08-08T08:43:01;100143.25;;;20.25;55.41
30598;BME280;17365;48.878;8.334;2023-08-08T08:45:27;100141.09;;;20.36;54.81
30598;BME280;17365;48.878;8.334;2023-08-08T08:47:54;100138.38;;;20.38;54.87
30598;BME280;17365;48.878;8.334;2023-08-08T08:50:21;100140.22;;;20.12;56.14
30598;BME280;17365;48.878;8.334;2023-08-08T08:52:47;100134.91;;;20.60;53.57
30598;BME280;17365;48.878;8.334;2023-08-08T08:55:13;100137.06;;;20.94;53.63
30598;BME280;17365;48.878;8.334;2023-08-08T08:57:38;100134.13;;;21.02;53.62
30598;BME280;17365;48.878;8.334;2023-08-08T09:00:04;100138.53;;;21.02;53.73
30598;BME280;17365;48.878;8.334;2023-08-08T09:02:31;100139.97;;;20.88;52.91
30598;BME280;17365;48.878;8.334;2023-08-08T09:04:56;100131.69;;;20.98;51.85
30598;BME280;17365;48.878;8.334;2023-08-08T09:07:22;100125.97;;;21.08;51.88
30598;BME280;17365;48.878;8.334;2023-08-08T09:09:50;100127.97;;;21.02;52.82
30598;BME280;17365;48.878;8.334;2023-08-08T09:12:16;100132.69;;;21.15;52.02
30598;BME280;17365;48.878;8.334;2023-08-08T09:14:41;100129.94;;;21.18;51.25
30598;BME280;17365;48.878;8.334;2023-08-08T09:17:10;100127.78;;;21.06;51.85
30598;BME280;17365;48.878;8.334;2023-08-08T09:19:36;100130.66;;;21.22;52.08
30598;BME280;17365;48.878;8.334;2023-08-08T09:22:01;100132.31;;;21.25;52.05
30598;BME280;17365;48.878;8.334;2023-08-08T09:24:26;100132.06;;;21.53;51.31
30598;BME280;17365;48.878;8.334;2023-08-08T09:26:52;100115.06;;;21.16;52.63
30598;BME280;17365;48.878;8.334;2023-08-08T09:29:17;100114.41;;;21.33;51.65
30598;BME280;17365;48.878;8.334;2023-08-08T09:31:42;100121.56;;;20.65;52.29
30598;BME280;17365;48.878;8.334;2023-08-08T09:34:07;100115.38;;;20.88;53.25
30598;BME280;17365;48.878;8.334;2023-08-08T09:36:33;100116.28;;;20.87;51.31
30598;BME280;17365;48.878;8.334;2023-08-08T09:39:00;100123.63;;;20.57;52.91
30598;BME280;17365;48.878;8.334;2023-08-08T09:41:25;100118.66;;;20.71;51.25
30598;BME280;17365;48.878;8.334;2023-08-08T09:43:52;100118.13;;;20.85;50.79
30598;BME280;17365;48.878;8.334;2023-08-08T09:46:21;100116.56;;;20.57;51.47
30598;BME280;17365;48.878;8.334;2023-08-08T09:48:46;100112.66;;;20.68;51.37
30598;BME280;17365;48.878;8.334;2023-08-08T09:51:12;100107.31;;;20.91;51.15
30598;BME280;17365;48.878;8.334;2023-08-08T09:53:38;100106.50;;;21.11;51.76
30598;BME280;17365;48.878;8.334;2023-08-08T09:56:04;100105.25;;;21.41;50.95
30598;BME280;17365;48.878;8.334;2023-08-08T09:58:29;100112.28;;;20.99;51.70
30598;BME280;17365;48.878;8.334;2023-08-08T10:00:55;100102.13;;;20.68;50.49
30598;BME280;17365;48.878;8.334;2023-08-08T10:03:20;100108.81;;;20.76;50.98
30598;BME280;17365;48.878;8.334;2023-08-08T10:05:46;100103.59;;;21.39;50.50
30598;BME280;17365;48.878;8.334;2023-08-08T10:08:11;100099.19;;;21.17;50.39
30598;BME280;17365;48.878;8.334;2023-08-08T10:13:06;100102.81;;;21.96;50.50
30598;BME280;17365;48.878;8.334;2023-08-08T10:15:31;100081.66;;;22.17;48.29
30598;BME280;17365;48.878;8.334;2023-08-08T10:17:57;100101.53;;;22.05;48.96
30598;BME280;17365;48.878;8.334;2023-08-08T10:20:26;100099.31;;;22.35;48.30
30598;BME280;17365;48.878;8.334;2023-08-08T10:22:52;100086.44;;;22.46;45.95
30598;BME280;17365;48.878;8.334;2023-08-08T10:25:23;100084.22;;;22.37;46.08
30598;BME280;17365;48.878;8.334;2023-08-08T10:27:49;100082.88;;;22.28;47.04
30598;BME280;17365;48.878;8.334;2023-08-08T10:30:14;100082.50;;;22.55;46.12
30598;BME280;17365;48.878;8.334;2023-08-08T10:32:41;100085.53;;;22.64;45.37
30598;BME280;17365;48.878;8.334;2023-08-08T10:35:07;100082.00;;;22.83;45.35
30598;BME280;17365;48.878;8.334;2023-08-08T10:37:33;100078.66;;;23.15;45.24
30598;BME280;17365;48.878;8.334;2023-08-08T10:39:58;100076.88;;;23.33;46.10
30598;BME280;17365;48.878;8.334;2023-08-08T10:42:25;100074.47;;;23.11;43.88
30598;BME280;17365;48.878;8.334;2023-08-08T10:44:51;100077.34;;;23.24;44.74
30598;BME280;17365;48.878;8.334;2023-08-08T10:47:21;100071.72;;;23.13;44.94
30598;BME280;17365;48.878;8.334;2023-08-08T10:49:55;100084.06;;;22.95;44.12
30598;BME280;17365;48.878;8.334;2023-08-08T10:52:20;100074.50;;;22.37;44.81
30598;BME280;17365;48.878;8.334;2023-08-08T10:54:51;100079.44;;;22.45;44.94
30598;BME280;17365;48.878;8.334;2023-08-08T10:57:16;100068.69;;;22.67;44.22
30598;BME280;17365;48.878;8.334;2023-08-08T10:59:44;100063.38;;;22.86;44.59
30598;BME280;17365;48.878;8.334;2023-08-08T11:02:09;100087.09;;;22.32;42.71
30598;BME280;17365;48.878;8.334;2023-08-08T11:04:34;100088.19;;;22.64;41.90
30598;BME280;17365;48.878;8.334;2023-08-08T11:07:00;100078.56;;;23.17;41.96
30598;BME280;17365;48.878;8.334;2023-08-08T11:09:26;100074.84;;;23.04;41.39
30598;BME280;17365;48.878;8.334;2023-08-08T11:11:51;100065.72;;;22.73;40.75
30598;BME280;17365;48.878;8.334;2023-08-08T11:14:17;100065.81;;;22.90;41.14
30598;BME280;17365;48.878;8.334;2023-08-08T11:16:44;100077.06;;;22.94;40.50
30598;BME280;17365;48.878;8.334;2023-08-08T11:19:10;100073.81;;;22.89;41.63
30598;BME280;17365;48.878;8.334;2023-08-08T11:21:37;100077.06;;;22.58;42.15
30598;BME280;17365;48.878;8.334;2023-08-08T11:24:03;100071.41;;;23.02;41.52
30598;BME280;17365;48.878;8.334;2023-08-08T11:26:28;100076.88;;;22.80;42.05
30598;BME280;17365;48.878;8.334;2023-08-08T11:28:56;100071.94;;;23.08;41.12
30598;BME280;17365;48.878;8.334;2023-08-08T11:31:22;100076.94;;;23.14;41.29
30598;BME280;17365;48.878;8.334;2023-08-08T11:33:48;100070.91;;;22.57;41.36
30598;BME280;17365;48.878;8.334;2023-08-08T11:36:14;100070.47;;;22.66;41.96
30598;BME280;17365;48.878;8.334;2023-08-08T11:38:39;100064.31;;;23.37;42.06
30598;BME280;17365;48.878;8.334;2023-08-08T11:41:05;100067.41;;;23.10;42.19
30598;BME280;17365;48.878;8.334;2023-08-08T11:43:31;100067.28;;;23.31;41.96
30598;BME280;17365;48.878;8.334;2023-08-08T11:45:59;100068.81;;;23.52;41.42
30598;BME280;17365;48.878;8.334;2023-08-08T11:48:24;100062.44;;;23.56;41.62
30598;BME280;17365;48.878;8.334;2023-08-08T11:50:52;100060.22;;;22.78;41.50
30598;BME280;17365;48.878;8.334;2023-08-08T11:53:18;100064.88;;;22.73;41.99
30598;BME280;17365;48.878;8.334;2023-08-08T11:55:44;100062.53;;;23.03;41.49
30598;BME280;17365;48.878;8.334;2023-08-08T11:58:12;100053.44;;;23.26;41.51
30598;BME280;17365;48.878;8.334;2023-08-08T12:00:37;100053.72;;;23.37;41.92
30598;BME280;17365;48.878;8.334;2023-08-08T12:03:03;100052.09;;;23.34;41.56
30598;BME280;17365;48.878;8.334;2023-08-08T12:05:29;100053.94;;;23.49;42.23
30598;BME280;17365;48.878;8.334;2023-08-08T12:07:55;100048.91;;;23.45;41.77
30598;BME280;17365;48.878;8.334;2023-08-08T12:10:21;100051.94;;;23.20;41.91
30598;BME280;17365;48.878;8.334;2023-08-08T12:12:46;100050.16;;;23.20;42.05
30598;BME280;17365;48.878;8.334;2023-08-08T12:15:12;100048.13;;;23.08;42.75
30598;BME280;17365;48.878;8.334;2023-08-08T12:17:38;100045.41;;;22.92;42.10
30598;BME280;17365;48.878;8.334;2023-08-08T12:20:03;100032.19;;;22.92;42.23
30598;BME280;17365;48.878;8.334;2023-08-08T12:22:30;100040.59;;;23.01;41.78
30598;BME280;17365;48.878;8.334;2023-08-08T12:24:56;100040.19;;;23.08;42.59
30598;BME280;17365;48.878;8.334;2023-08-08T12:27:21;100039.97;;;22.95;43.17
30598;BME280;17365;48.878;8.334;2023-08-08T12:29:46;100034.13;;;22.89;43.28
30598;BME280;17365;48.878;8.334;2023-08-08T12:32:11;100039.81;;;23.33;42.40
30598;BME280;17365;48.878;8.334;2023-08-08T12:34:36;100033.31;;;23.39;42.47
30598;BME280;17365;48.878;8.334;2023-08-08T12:37:02;100027.63;;;23.64;42.43
30598;BME280;17365;48.878;8.334;2023-08-08T12:39:27;100025.22;;;23.59;42.00
30598;BME280;17365;48.878;8.334;2023-08-08T12:41:53;100018.28;;;22.70;41.96
30598;BME280;17365;48.878;8.334;2023-08-08T12:44:18;100026.78;;;22.77;42.50